Latest Weather Observations for Truscott

IDW60801

Issued at 11:35 am WST Friday 1 August 2014 (issued every 30 minutes, with the page automatically refreshed every 10 minutes)

About weather observations | Map of weather stations | Latest weather observations for WA | Other Formats
Station Details ID: 001020 Name: TRUSCOTT Lat: -14.09 Lon: 126.39 Height: 51.0 m
Data from the previous 72 hours. | See also: Recent months at Truscott
Date/Time
WST
Temp
°C
App
Temp
°C
Dew
Point
Rel
Hum
%
Delta-T
°C
Wind Press
QNH
hPa
Press
MSL
hPa
Rain
since 9 am
mm
Dir
 
Spd
km/h
Gust
km/h
Spd
kts
Gust
kts
01/11:30am 32.0 28.4 10.0 25 12.6 E 19 20 10 11 1013.0 - 0.0
01/11:00am 31.0 28.5 11.0 29 11.6 ENE 15 20 8 11 1013.0 - 0.0
01/10:30am 31.0 28.1 11.0 29 11.6 ENE 17 - 9 - 1014.0 - 0.0
01/10:00am 31.0 27.8 10.0 27 11.9 E 17 - 9 - 1014.0 - 0.0
01/09:30am 30.0 27.9 11.0 31 10.9 ESE 13 - 7 - 1014.0 - 0.0
01/09:00am 29.3 28.7 13.5 38 9.4 ESE 9 17 5 9 1014.0 1014.4 0.0
01/08:30am 28.0 29.3 17.0 51 6.9 ESE 6 - 3 - 1014.0 - 0.0
01/08:00am 27.0 28.1 17.0 54 6.2 ESE 7 - 4 - 1014.0 - 0.0
01/07:30am 25.0 26.5 18.0 65 4.4 ESE 7 - 4 - 1014.0 - 0.0
01/07:00am 23.0 25.1 19.0 78 2.5 SE 6 - 3 - 1014.0 - 0.0
01/06:30am 23.0 26.3 19.0 78 2.5 CALM 0 - 0 - 1014.0 - 0.0
01/06:00am 23.3 25.1 18.8 76 2.9 SSW 7 - 4 - 1013.0 1013.2 0.0
01/05:30am 23.0 24.5 19.0 78 2.5 SSW 9 - 5 - 1013.0 - 0.0
01/05:00am 23.0 25.0 20.0 83 1.9 SW 9 - 5 - 1013.0 - 0.0
01/04:30am 23.0 25.0 20.0 83 1.9 SW 9 - 5 - 1013.0 - 0.0
01/04:00am 23.0 25.0 20.0 83 1.9 SSW 9 - 5 - 1013.0 - 0.0
01/03:30am 23.0 25.0 20.0 83 1.9 SSW 9 - 5 - 1013.0 - 0.0
01/03:00am 23.1 24.3 19.1 78 2.5 SSW 11 - 6 - 1013.0 1012.6 0.0
01/02:30am 23.0 24.2 19.0 78 2.5 SSW 11 - 6 - 1013.0 - 0.0
01/02:00am 23.0 24.2 19.0 78 2.5 SSW 11 - 6 - 1013.0 - 0.0
01/01:30am 22.0 22.8 19.0 83 1.9 SSW 13 - 7 - 1013.0 - 0.0
01/01:00am 23.0 24.2 19.0 78 2.5 SW 11 - 6 - 1013.0 - 0.0
01/12:30am 21.0 24.3 19.0 88 1.3 CALM 0 - 0 - 1013.0 - 0.0
01/12:00am 21.3 23.5 18.3 83 1.9 SSW 4 - 2 - 1014.0 1013.6 0.0
 
Date/Time
WST
Temp
°C
App
Temp
°C
Dew
Point
Rel
Hum
%
Delta-T
°C
Wind Press
QNH
hPa
Press
MSL
hPa
Rain
since 9 am
mm
Dir
 
Spd
km/h
Gust
km/h
Spd
kts
Gust
kts
31/11:30pm 21.0 24.3 19.0 88 1.3 CALM 0 - 0 - 1014.0 - 0.0
31/11:00pm 21.0 23.8 18.0 83 1.9 CALM 0 - 0 - 1014.0 - 0.0
31/10:30pm 21.0 23.8 18.0 83 1.9 CALM 0 - 0 - 1014.0 - 0.0
31/10:00pm 21.0 23.8 18.0 83 1.9 CALM 0 - 0 - 1014.0 - 0.0
31/09:30pm 22.0 24.8 18.0 78 2.5 CALM 0 - 0 - 1014.0 - 0.0
31/09:00pm 21.6 24.2 17.6 78 2.5 CALM 0 - 0 - 1014.0 1014.1 0.0
31/08:30pm 22.0 24.4 17.0 73 3.1 CALM 0 - 0 - 1014.0 - 0.0
31/08:00pm 22.0 24.4 17.0 73 3.1 CALM 0 - 0 - 1014.0 - 0.0
31/07:30pm 22.0 24.4 17.0 73 3.1 CALM 0 - 0 - 1013.0 - 0.0
31/07:00pm 23.0 25.0 16.0 64 4.2 CALM 0 - 0 - 1013.0 - 0.0
31/06:30pm 25.0 27.4 17.0 61 5.0 CALM 0 - 0 - 1012.0 - 0.0
31/06:00pm 25.2 25.5 16.1 57 5.6 NE 9 - 5 - 1012.0 1012.0 0.0
31/05:30pm 26.0 25.9 15.0 50 6.6 NNE 9 - 5 - 1012.0 - 0.0
31/05:00pm 27.0 26.2 14.0 44 7.7 NNE 11 - 6 - 1012.0 - 0.0
31/04:30pm 28.0 26.8 14.0 42 8.4 N 13 - 7 - 1012.0 - 0.0
31/04:00pm 29.0 27.8 14.0 39 9.0 N 13 - 7 - 1012.0 - 0.0
31/03:30pm 29.0 27.4 15.0 42 8.5 N 17 - 9 - 1011.0 - 0.0
31/03:00pm 29.2 28.6 16.7 46 7.8 N 15 - 8 - 1012.0 1011.6 0.0
31/02:30pm 29.0 27.8 16.0 45 8.1 N 17 - 9 - 1012.0 - 0.0
31/02:00pm 29.0 27.4 15.0 42 8.5 N 17 - 9 - 1012.0 - 0.0
31/01:30pm 30.0 28.0 14.0 37 9.7 NNE 17 - 9 - 1012.0 - 0.0
31/01:00pm 32.0 28.7 8.0 22 13.3 E 15 - 8 - 1013.0 - 0.0
31/12:30pm 32.0 28.3 8.0 22 13.3 E 17 - 9 - 1013.0 - 0.0
31/12:00pm 31.0 27.7 8.1 24 12.6 E 15 - 8 - 1014.0 1013.6 0.0
31/11:30am 31.0 28.2 10.0 27 11.9 E 15 - 8 - 1014.0 - 0.0
31/11:00am 30.0 27.1 11.0 31 10.9 E 17 - 9 - 1015.0 - 0.0
31/10:30am 30.0 27.1 11.0 31 10.9 E 17 - 9 - 1015.0 - 0.0
31/10:00am 29.0 25.7 11.0 32 10.3 ESE 19 - 10 - 1015.0 - 0.0
31/09:30am 29.0 26.1 11.0 32 10.3 E 17 - 9 - 1016.0 - 0.0
31/09:00am 28.0 27.8 15.6 46 7.6 E 11 - 6 - 1016.0 1015.8 0.0
31/08:30am 26.0 27.5 18.0 61 5.1 ESE 7 - 4 - 1016.0 - 0.0
31/08:00am 25.0 26.5 18.0 65 4.4 ESE 7 - 4 - 1016.0 - 0.0
31/07:30am 24.0 25.9 19.0 73 3.2 S 7 - 4 - 1015.0 - 0.0
31/07:00am 23.0 24.7 18.0 73 3.1 SSE 6 - 3 - 1015.0 - 0.0
31/06:30am 22.0 23.5 19.0 83 1.9 SSW 9 - 5 - 1015.0 - 0.0
31/06:00am 21.5 23.0 18.9 85 1.6 SW 9 - 5 - 1014.0 1014.6 0.0
31/05:30am 22.0 22.8 19.0 83 1.9 SW 13 - 7 - 1014.0 - 0.0
31/05:00am 21.0 23.0 20.0 94 0.6 SW 9 - 5 - 1014.0 - 0.0
31/04:30am 21.0 22.5 19.0 88 1.3 SW 9 - 5 - 1014.0 - 0.0
31/04:00am 22.0 23.5 19.0 83 1.9 SW 9 - 5 - 1013.0 - 0.0
31/03:30am 22.0 23.2 19.0 83 1.9 SSW 11 - 6 - 1014.0 - 0.0
31/03:00am 21.9 22.7 19.1 84 1.8 SW 13 - 7 - 1014.0 1013.7 0.0
31/02:30am 22.0 23.2 19.0 83 1.9 SSW 11 - 6 - 1014.0 - 0.0
31/02:00am 22.0 23.2 19.0 83 1.9 SSW 11 - 6 - 1014.0 - 0.0
31/01:30am 22.0 22.7 18.0 78 2.5 SW 11 - 6 - 1014.0 - 0.0
31/01:00am 22.0 22.7 18.0 78 2.5 SSW 11 - 6 - 1014.0 - 0.0
31/12:30am 23.0 24.2 19.0 78 2.5 SSW 11 - 6 - 1014.0 - 0.0
31/12:00am 21.2 24.4 18.9 87 1.4 CALM 0 - 0 - 1015.0 1014.7 0.0
 
Date/Time
WST
Temp
°C
App
Temp
°C
Dew
Point
Rel
Hum
%
Delta-T
°C
Wind Press
QNH
hPa
Press
MSL
hPa
Rain
since 9 am
mm
Dir
 
Spd
km/h
Gust
km/h
Spd
kts
Gust
kts
30/11:30pm 22.0 25.3 19.0 83 1.9 CALM 0 - 0 - 1015.0 - 0.0
30/11:00pm 21.0 24.3 19.0 88 1.3 CALM 0 - 0 - 1015.0 - 0.0
30/10:30pm 22.0 24.8 18.0 78 2.5 CALM 0 - 0 - 1015.0 - 0.0
30/10:00pm 22.0 24.4 18.0 78 2.5 SW 2 - 1 - 1015.0 - 0.0
30/09:30pm 23.0 24.7 18.0 73 3.1 SSW 6 - 3 - 1015.0 - 0.0
30/09:00pm 23.3 25.9 18.4 74 3.1 E 2 - 1 - 1015.0 1015.0 0.0
30/08:30pm 24.0 25.7 18.0 69 3.8 ENE 6 - 3 - 1015.0 - 0.0
30/08:00pm 25.0 26.5 18.0 65 4.4 ENE 7 - 4 - 1015.0 - 0.0
30/07:30pm 25.0 25.7 17.0 61 5.0 NE 9 - 5 - 1015.0 - 0.0
30/07:00pm 25.0 26.1 18.0 65 4.4 NE 9 - 5 - 1014.0 - 0.0
30/06:30pm 26.0 27.2 19.0 65 4.5 NE 11 - 6 - 1014.0 - 0.0
30/06:00pm 26.0 26.7 17.9 61 5.1 NNE 11 - 6 - 1013.0 1013.5 0.0
30/05:30pm 27.0 26.9 17.0 54 6.2 NNE 13 - 7 - 1013.0 - 0.0
30/05:00pm 28.0 27.9 17.0 51 6.9 NNE 13 - 7 - 1013.0 - 0.0
30/04:30pm 28.0 27.2 16.0 48 7.4 NNE 15 - 8 - 1013.0 - 0.0
30/04:00pm 29.0 28.2 16.0 45 8.1 NNE 15 - 8 - 1012.0 - 0.0
30/03:30pm 30.0 30.3 18.0 48 7.7 N 13 - 7 - 1012.0 - 0.0
30/03:00pm 29.6 28.9 17.4 47 7.7 N 17 - 9 - 1012.0 1012.1 0.0
30/02:30pm 30.0 29.2 17.0 45 8.2 N 17 - 9 - 1012.0 - 0.0
30/02:00pm 30.0 29.5 17.0 45 8.2 N 15 - 8 - 1012.0 - 0.0
30/01:30pm 31.0 29.0 15.0 38 9.8 N 19 - 10 - 1012.0 - 0.0
30/01:00pm 32.0 30.2 12.0 29 11.8 E 13 - 7 - 1013.0 - 0.0
30/12:30pm 31.0 28.2 10.0 27 11.9 E 15 - 8 - 1013.0 - 0.0
30/12:00pm 30.9 28.3 10.8 29 11.6 E 15 - 8 - 1014.0 1013.7 0.0
30/11:30am 31.0 28.2 10.0 27 11.9 E 15 - 8 - 1014.0 - 0.0
30/11:00am 31.0 28.1 11.0 29 11.6 E 17 - 9 - 1015.0 - 0.0
30/10:30am 30.0 26.7 11.0 31 10.9 E 19 - 10 - 1015.0 - 0.0
30/10:00am 29.0 25.4 10.0 30 10.7 E 19 - 10 - 1015.0 - 0.0
30/09:30am 28.0 24.4 10.0 32 10.1 ESE 19 - 10 - 1016.0 - 0.0
30/09:00am 27.6 25.3 10.3 34 9.7 E 13 - 7 - 1016.0 1016.2 0.0
30/08:30am 27.0 25.2 12.0 39 8.7 E 13 - 7 - 1016.0 - 0.0
30/08:00am 26.0 25.2 14.0 47 7.1 ESE 11 - 6 - 1016.0 - 0.0
30/07:30am 25.0 25.3 15.0 53 6.0 E 7 - 4 - 1016.0 - 0.0
30/07:00am 23.0 22.8 13.0 53 5.8 E 6 - 3 - 1016.0 - 0.0
30/06:30am 21.0 20.8 13.0 60 4.6 SE 6 - 3 - 1015.0 - 0.0
30/06:00am 20.9 20.1 12.8 60 4.6 SSE 9 - 5 - 1015.0 1015.2 0.0
30/05:30am 20.0 19.6 13.0 64 4.0 SSE 7 - 4 - 1015.0 - 0.0
30/05:00am 19.0 18.9 14.0 73 2.9 SE 7 - 4 - 1015.0 - 0.0
30/04:30am 19.0 19.5 15.0 77 2.3 SW 6 - 3 - 1014.0 - 0.0
30/04:00am 20.0 20.5 15.0 73 2.9 SW 6 - 3 - 1014.0 - 0.0
30/03:30am 21.0 21.3 15.0 68 3.5 SW 7 - 4 - 1014.0 - 0.0
30/03:00am 20.0 20.9 15.0 73 2.9 SW 4 - 2 - 1014.0 1014.1 0.0
30/02:30am 21.0 21.9 16.0 73 3.0 SSW 6 - 3 - 1014.0 - 0.0
30/02:00am 21.0 21.9 16.0 73 3.0 SSW 6 - 3 - 1014.0 - 0.0
30/01:30am 21.0 23.4 17.0 78 2.4 CALM 0 - 0 - 1014.0 - 0.0
30/01:00am 21.0 22.7 18.0 83 1.9 SW 6 - 3 - 1015.0 - 0.0
30/12:30am 22.0 24.1 19.0 83 1.9 SSW 6 - 3 - 1015.0 - 0.0
30/12:00am 21.1 24.0 18.1 83 1.9 CALM 0 - 0 - 1015.0 1014.9 0.0
 
Date/Time
WST
Temp
°C
App
Temp
°C
Dew
Point
Rel
Hum
%
Delta-T
°C
Wind Press
QNH
hPa
Press
MSL
hPa
Rain
since 9 am
mm
Dir
 
Spd
km/h
Gust
km/h
Spd
kts
Gust
kts
29/11:30pm 21.0 23.4 18.0 83 1.9 SSE 2 - 1 - 1015.0 - 0.0
29/11:00pm 21.0 22.5 18.0 83 1.9 SE 7 - 4 - 1015.0 - 0.0
29/10:57pm 21.0 22.5 18.0 83 1.9 SE 7 - 4 - 1015.0 - 0.0
29/10:40pm 21.0 22.3 17.0 78 2.4 ESE 6 - 3 - 1015.0 - 0.0
29/10:30pm 21.0 21.9 16.0 73 3.0 ESE 6 - 3 - 1015.0 - 0.0
29/10:00pm 21.0 21.9 16.0 73 3.0 E 6 - 3 - 1015.0 - 0.0
29/09:30pm 22.0 22.5 15.0 64 4.2 ENE 6 - 3 - 1015.0 - 0.0
29/09:00pm 22.8 23.0 14.6 60 4.8 NE 7 - 4 - 1015.0 1015.2 0.0
29/08:30pm 24.0 24.3 15.0 57 5.4 ENE 7 - 4 - 1015.0 - 0.0
29/08:00pm 25.0 24.5 15.0 53 6.0 NE 11 - 6 - 1015.0 - 0.0
29/07:30pm 25.0 24.5 15.0 53 6.0 ENE 11 - 6 - 1015.0 - 0.0
29/07:00pm 26.0 25.5 15.0 50 6.6 NE 11 - 6 - 1015.0 - 0.0
29/06:30pm 26.0 25.2 15.0 50 6.6 NE 13 - 7 - 1014.0 - 0.0
29/06:00pm 26.5 25.2 14.9 49 7.0 NE 15 - 8 - 1014.0 1013.9 0.0
29/05:30pm 27.0 25.8 15.0 47 7.3 NE 15 - 8 - 1014.0 - 0.0
29/05:00pm 28.0 26.4 15.0 45 7.9 NE 17 - 9 - 1013.0 - 0.0
29/04:30pm 29.0 27.4 15.0 42 8.5 NE 17 - 9 - 1013.0 - 0.0
29/04:00pm 29.0 26.7 14.0 39 9.0 NE 19 - 10 - 1012.0 - 0.0
29/03:30pm 30.0 27.7 14.0 37 9.7 NE 19 - 10 - 1012.0 - 0.0
29/03:00pm 30.8 28.3 14.0 36 10.2 ENE 20 - 11 - 1012.0 1012.3 0.0
29/02:30pm 32.0 29.3 13.0 31 11.4 NE 19 - 10 - 1012.0 - 0.0
29/02:00pm 32.0 30.1 13.0 31 11.4 ENE 15 - 8 - 1012.0 - 0.0
29/01:30pm 32.0 29.0 12.0 29 11.8 NE 19 - 10 - 1013.0 - 0.0
29/01:00pm 32.0 29.4 12.0 29 11.8 ENE 17 - 9 - 1013.0 - 0.0
29/12:30pm 32.0 29.9 11.0 27 12.2 E 13 - 7 - 1014.0 - 0.0
29/12:00pm 31.5 28.3 11.3 29 11.8 E 19 - 10 - 1014.0 1014.0 0.0

Other Formats:

Comma delimited format used in spreadsheet applications
http://www.bom.gov.au/fwo/IDW60801/IDW60801.95101.axf

JavaScript Object Notation format (JSON) in row-major order
http://www.bom.gov.au/fwo/IDW60801/IDW60801.95101.json